Latest Weather Observations for Mount Hotham

IDV60801

Issued at 7:32 am EDT Sunday 26 February 2017 (issued every 30 minutes, with the page automatically refreshed every 10 minutes)

About weather observations | Map of weather stations | Latest weather observations for VIC | Other Formats
Station Details ID: 083085 Name: MOUNT HOTHAM Lat: -36.98 Lon: 147.13 Height: 1849.0 m
Data from the previous 72 hours. | See also: Recent months at Mount Hotham
Date/Time
EDT
Temp
°C
App
Temp
°C
Dew
Point
°C
Rel
Hum
%
Delta-T
°C
Wind Press
QNH
hPa
Press
MSL
hPa
Rain since
9am
mm
Dir  Spd
km/h
Gust
km/h
Spd
kts
Gust
kts
26/07:30am 8.4 - - - - WSW 11 15 6 8 - - 0.2
26/07:00am 8.0 - - - - NW 7 9 4 5 - - 0.2
26/06:30am 8.1 - - - - NW 9 13 5 7 - - 0.2
26/06:00am 8.3 - - - - N 9 11 5 6 - - 0.2
26/05:30am 8.4 - - - - ENE 6 7 3 4 - - 0.2
26/05:00am 7.1 - - - - CALM 0 6 0 3 - - 0.2
26/04:30am 6.1 - - - - ESE 13 17 7 9 - - 0.2
26/04:00am 6.0 - - - - E 13 17 7 9 - - 0.0
26/03:30am 6.1 - - - - E 17 24 9 13 - - 0.0
26/03:00am 6.3 - - - - E 19 24 10 13 - - 0.0
26/02:30am 6.2 - - - - E 19 24 10 13 - - 0.0
26/02:00am 6.3 - - - - E 20 24 11 13 - - 0.0
26/01:30am 6.3 - - - - E 24 32 13 17 - - 0.0
26/01:00am 6.3 - - - - E 26 33 14 18 - - 0.0
26/12:30am 6.6 - - - - E 28 33 15 18 - - 0.0
26/12:00am 6.7 - - - - E 26 33 14 18 - - 0.0
 
Date/Time
EDT
Temp
°C
App
Temp
°C
Dew
Point
°C
Rel
Hum
%
Delta-T
°C
Wind Press
QNH
hPa
Press
MSL
hPa
Rain since
9am
mm
Dir  Spd
km/h
Gust
km/h
Spd
kts
Gust
kts
25/11:30pm 6.7 - - - - E 24 32 13 17 - - 0.0
25/11:00pm 6.7 - - - - E 24 32 13 17 - - 0.0
25/10:30pm 7.0 - - - - ESE 24 32 13 17 - - 0.0
25/10:00pm 7.0 - - - - ESE 20 28 11 15 - - 0.0
25/09:30pm 7.0 - - - - ESE 19 24 10 13 - - 0.0
25/09:00pm 7.1 - - - - ESE 19 26 10 14 - - 0.0
25/08:30pm 7.1 - - - - ESE 19 24 10 13 - - 0.0
25/08:00pm 7.7 - - - - ESE 17 22 9 12 - - 0.0
25/07:30pm 8.2 - - - - ESE 17 24 9 13 - - 0.0
25/07:00pm 8.7 - - - - ESE 15 22 8 12 - - 0.0
25/06:30pm 9.2 - - - - ESE 17 22 9 12 - - 0.0
25/06:00pm 9.8 - - - - ESE 19 26 10 14 - - 0.0
25/05:30pm 10.2 - - - - ESE 17 20 9 11 - - 0.0
25/05:00pm 10.4 - - - - ESE 17 22 9 12 - - 0.0
25/04:30pm 10.2 - - - - SSE 15 26 8 14 - - 0.0
25/04:00pm 10.8 - - - - SSE 13 20 7 11 - - 0.0
25/03:30pm 10.9 - - - - SE 13 20 7 11 - - 0.0
25/03:00pm 11.1 - - - - SE 13 19 7 10 - - 0.0
25/02:30pm 10.9 - - - - S 13 22 7 12 - - 0.0
25/02:00pm 10.6 - - - - SSE 9 17 5 9 - - 0.0
25/01:30pm 10.6 - - - - S 9 15 5 8 - - 0.0
25/01:00pm 11.2 - - - - SW 7 13 4 7 - - 0.0
25/12:30pm 11.3 - - - - NNW 13 20 7 11 - - 0.0
25/12:00pm 11.1 - - - - N 19 28 10 15 - - 0.0
25/11:30am 10.3 - - - - NNE 20 28 11 15 - - 0.0
25/11:00am 9.9 - - - - NNE 20 26 11 14 - - 0.0
25/10:30am 9.4 - - - - N 24 32 13 17 - - 0.0
25/10:00am 9.4 - - - - N 24 28 13 15 - - 0.0
25/09:30am 9.1 - - - - N 20 28 11 15 - - 0.0
25/09:00am 9.5 - - - - NNE 22 30 12 16 - - 0.0
25/08:30am 9.5 - - - - NNE 22 28 12 15 - - 0.0
25/08:00am 8.6 - - - - NNE 20 24 11 13 - - 0.0
25/07:30am 8.8 - - - - NNE 22 26 12 14 - - 0.0
25/07:00am 9.0 - - - - NNE 17 19 9 10 - - 0.0
25/06:30am 9.1 - - - - N 22 24 12 13 - - 0.0
25/06:00am 8.8 - - - - NNE 15 19 8 10 - - 0.0
25/05:30am 9.5 - - - - NE 9 11 5 6 - - 0.0
25/05:00am 9.8 - - - - NE 6 9 3 5 - - 0.0
25/04:30am 9.8 - - - - ENE 9 13 5 7 - - 0.0
25/04:00am 8.4 - - - - E 19 20 10 11 - - 0.0
25/03:30am 9.0 - - - - E 19 24 10 13 - - 0.0
25/03:00am 8.8 - - - - E 20 28 11 15 - - 0.0
25/02:30am 8.7 - - - - E 20 24 11 13 - - 0.0
25/02:00am 9.2 - - - - ESE 19 22 10 12 - - 0.0
25/01:30am 8.7 - - - - ESE 20 24 11 13 - - 0.0
25/01:00am 8.1 - - - - ESE 22 24 12 13 - - 0.0
25/12:30am 7.7 - - - - ESE 20 24 11 13 - - 0.0
25/12:00am 6.9 - - - - SE 28 32 15 17 - - 0.0
 
Date/Time
EDT
Temp
°C
App
Temp
°C
Dew
Point
°C
Rel
Hum
%
Delta-T
°C
Wind Press
QNH
hPa
Press
MSL
hPa
Rain since
9am
mm
Dir  Spd
km/h
Gust
km/h
Spd
kts
Gust
kts
24/11:30pm 7.2 - - - - SE 26 32 14 17 - - 0.0
24/11:00pm 8.0 - - - - SE 33 37 18 20 - - 0.0
24/10:30pm 9.1 - - - - SSE 37 43 20 23 - - 0.0
24/10:00pm 9.6 - - - - SSE 33 43 18 23 - - 0.0
24/09:30pm 7.7 - - - - SSE 26 30 14 16 - - 0.0
24/09:00pm 6.7 - - - - SSE 19 24 10 13 - - 0.0
24/08:30pm 6.2 - - - - SSE 20 26 11 14 - - 0.0
24/08:00pm 7.3 - - - - SSE 22 24 12 13 - - 0.0
24/07:30pm 7.6 - - - - S 20 28 11 15 - - 0.0
24/07:00pm 8.5 - - - - S 19 22 10 12 - - 0.0
24/06:30pm 8.9 - - - - SSE 20 24 11 13 - - 0.0
24/06:00pm 9.8 - - - - S 20 24 11 13 - - 0.0
24/05:30pm 11.0 - - - - S 20 24 11 13 - - 0.0
24/05:00pm 12.7 - - - - S 24 32 13 17 - - 0.0
24/04:30pm 16.2 - - - - WNW 11 24 6 13 - - 0.0
24/04:00pm 16.7 - - - - WNW 9 17 5 9 - - 0.0
24/03:30pm 16.9 - - - - NW 13 20 7 11 - - 0.0
24/03:00pm 16.7 - - - - NNW 11 20 6 11 - - 0.0
24/02:30pm 16.1 - - - - NNW 17 30 9 16 - - 0.0
24/02:00pm 15.7 - - - - NW 20 28 11 15 - - 0.0
24/01:30pm 15.8 - - - - NNW 20 30 11 16 - - 0.0
24/01:00pm 14.8 - - - - NW 17 28 9 15 - - 0.0
24/12:30pm 15.3 - - - - NW 19 24 10 13 - - 0.0
24/12:00pm 14.8 - - - - NW 15 20 8 11 - - 0.0
24/11:30am 14.8 - - - - WNW 15 20 8 11 - - 0.0
24/11:00am 13.6 - - - - NW 15 20 8 11 - - 0.0
24/10:30am 13.3 - - - - NW 15 20 8 11 - - 0.0
24/10:00am 13.3 - - - - NW 15 19 8 10 - - 0.0
24/09:30am 12.7 - - - - WNW 17 20 9 11 - - 0.0
24/09:00am 12.9 - - - - NW 15 19 8 10 - - 0.0
24/08:30am 12.2 - - - - WNW 15 19 8 10 - - 0.0
24/08:00am 11.4 - - - - WNW 17 17 9 9 - - 0.0
24/07:30am 11.0 - - - - NNW 17 20 9 11 - - 0.0
24/07:00am 10.6 - - - - NW 19 20 10 11 - - 0.0
24/06:30am 10.6 - - - - NNW 17 20 9 11 - - 0.0
24/06:00am 9.7 - - - - N 15 17 8 9 - - 0.0
24/05:30am 11.2 - - - - NNW 15 17 8 9 - - 0.0
24/05:00am 10.5 - - - - NNW 17 19 9 10 - - 0.0
24/04:30am 10.3 - - - - NNW 19 22 10 12 - - 0.0
24/04:00am 10.4 - - - - NNW 17 20 9 11 - - 0.0
24/03:30am 11.5 - - - - N 22 24 12 13 - - 0.0
24/03:00am 11.8 - - - - N 22 26 12 14 - - 0.0
24/02:30am 11.2 - - - - N 28 30 15 16 - - 0.0
24/02:00am 11.5 - - - - N 26 30 14 16 - - 0.0
24/01:30am 11.9 - - - - N 26 28 14 15 - - 0.0
24/01:00am 11.5 - - - - N 22 24 12 13 - - 0.0
24/12:30am 11.1 - - - - N 19 20 10 11 - - 0.0
24/12:00am 12.1 - - - - NNW 20 24 11 13 - - 0.0
 
Date/Time
EDT
Temp
°C
App
Temp
°C
Dew
Point
°C
Rel
Hum
%
Delta-T
°C
Wind Press
QNH
hPa
Press
MSL
hPa
Rain since
9am
mm
Dir  Spd
km/h
Gust
km/h
Spd
kts
Gust
kts
23/11:30pm 12.2 - - - - NNW 22 24 12 13 - - 0.0
23/11:00pm 12.1 - - - - NNW 20 24 11 13 - - 0.0
23/10:30pm 13.1 - - - - N 17 20 9 11 - - 0.0
23/10:00pm 13.4 - - - - N 20 28 11 15 - - 0.0
23/09:30pm 13.5 - - - - N 19 24 10 13 - - 0.0
23/09:00pm 14.2 - - - - N 30 35 16 19 - - 0.0
23/08:30pm 14.8 - - - - NNW 26 32 14 17 - - 0.0
23/08:00pm 15.0 - - - - N 24 37 13 20 - - 0.0
23/07:30pm 16.1 - - - - N 24 35 13 19 - - 0.0
23/07:00pm 16.8 - - - - N 30 39 16 21 - - 0.0
23/06:30pm 17.3 - - - - N 24 35 13 19 - - 0.0
23/06:11pm 17.9 - - - - NNW 28 48 15 26 - - 0.0
23/06:00pm 17.9 - - - - NNW 26 39 14 21 - - 0.0
23/05:43pm 18.1 - - - - NNW 28 46 15 25 - - 0.0
23/05:30pm 18.2 - - - - NNW 30 41 16 22 - - 0.0
23/05:05pm 18.5 - - - - NNW 28 46 15 25 - - 0.0
23/05:00pm 18.6 - - - - NNW 28 43 15 23 - - 0.0
23/04:30pm 18.8 - - - - NNW 24 33 13 18 - - 0.0
23/04:00pm 18.8 - - - - NNW 22 33 12 18 - - 0.0
23/03:30pm 18.5 - - - - N 28 46 15 25 - - 0.0
23/03:05pm 18.3 - - - - N 33 54 18 29 - - 0.0
23/03:00pm 18.2 - - - - N 32 48 17 26 - - 0.0
23/02:30pm 18.2 - - - - N 35 48 19 26 - - 0.0
23/02:00pm 18.1 - - - - N 33 52 18 28 - - 0.0
23/01:58pm 18.9 - - - - N 33 52 18 28 - - 0.0
23/01:30pm 18.3 - - - - N 33 44 18 24 - - 0.0
23/01:06pm 17.7 - - - - N 35 54 19 29 - - 0.0
23/01:00pm 17.3 - - - - N 37 52 20 28 - - 0.0
23/12:30pm 17.3 - - - - N 32 44 17 24 - - 0.0
23/12:00pm 17.4 - - - - N 33 46 18 25 - - 0.0
23/11:30am 16.9 - - - - N 35 50 19 27 - - 0.0
23/11:00am 16.1 - - - - NNE 35 46 19 25 - - 0.0
23/10:30am 16.2 - - - - N 35 46 19 25 - - 0.0
23/10:00am 16.2 - - - - N 41 56 22 30 - - 0.0
23/09:30am 15.9 - - - - N 43 57 23 31 - - 0.0
23/09:00am 15.4 - - - - N 44 56 24 30 - - 0.0
23/08:30am 15.1 - - - - N 44 56 24 30 - - 0.0
23/08:00am 14.5 - - - - N 44 56 24 30 - - 0.0

Other Formats:

Comma delimited format used in spreadsheet applications
http://www.bom.gov.au/fwo/IDV60801/IDV60801.94906.axf

JavaScript Object Notation format (JSON) in row-major order
http://www.bom.gov.au/fwo/IDV60801/IDV60801.94906.json